Vivien A — TCYC4 — position and weather

sailwx.info

Track history (hours):
 
Tides and Currents Weather Stations Pressure Air Temp Water Temp Dewpoint Dewpoint Depression Visibility Wind Speed Wind Dir Waves Ship Positions

Vivien A

Last reported at 2014-Jul-01 02:17 UTC. Time now 2014-Jul-26 07:06 UTC.
Position N 31°06' W 011°26'.
Warning: this ship's position is 25 days out of date.

Length 210 m; draft 10.8 m.

Type: Ship (hazmat cat A). MMSI: 271040635.

Date/timePositionNaut miles runAvg speedWind from/ knotsBaromVisibWave heightAir tempDewpointWater temp
2014-Jul-01 02:17N 31°06' W 011°26'2413.7
2014-Jul-01 00:31N 31°26' W 011°09'1314.0
2014-Jun-30 23:33N 31°37' W 010°60'1413.7
2014-Jun-30 22:33N 31°48' W 010°50'1413.9
2014-Jun-30 21:33N 31°58' W 010°39'1413.9
2014-Jun-30 20:33N 32°08' W 010°28'2813.9
2014-Jun-30 18:33N 32°28' W 010°06'2814.0
2014-Jun-30 16:33N 32°49' W 009°43'289 6.0
2014-Jun-28 16:07N 36°02' W 005°23'  
Track history (hours):
 
Tides and Currents Weather Stations Pressure Air Temp Water Temp Dewpoint Dewpoint Depression Visibility Wind Speed Wind Dir Waves Ship Positions

Vivien A

Last reported at 2014-Jul-01 02:17 UTC. Time now 2014-Jul-26 07:06 UTC.
Position N 31°06' W 011°26'.
Warning: this ship's position is 25 days out of date.

Length 210 m; draft 10.8 m.

Type: Ship (hazmat cat A). MMSI: 271040635.

Date/timePositionNaut miles runAvg speedWind from/ knotsBaromVisibWave heightAir tempDewpointWater temp
2014-Jul-01 02:17N 31°06' W 011°26'2413.7
2014-Jul-01 00:31N 31°26' W 011°09'1314.0
2014-Jun-30 23:33N 31°37' W 010°60'1413.7
2014-Jun-30 22:33N 31°48' W 010°50'1413.9
2014-Jun-30 21:33N 31°58' W 010°39'1413.9
2014-Jun-30 20:33N 32°08' W 010°28'2813.9
2014-Jun-30 18:33N 32°28' W 010°06'2814.0
2014-Jun-30 16:33N 32°49' W 009°43'289 6.0
2014-Jun-28 16:07N 36°02' W 005°23'  

Dump ship's entire track history